KHLC

Hill City Municipal Airport

Hill City, Kansas, USA
METAR KHLC 242353Z AUTO 15010G21KT 10SM CLR 29/18 A2989 RMK AO2 SLP100 T02940183 10317 20289 56013
Observed Flight Rules
May-24 @ 23:53 UTC (an hour ago) Visual Flight Rules
Wind Visibility Clouds
150° at 10 knots
 Gusting to 21 knots
10 miles
  • Clear skies
Temperatures Readings
Current 29°C / 84°F
Dewpoint 18°C / 64°F
Humidity 51%
Altimeter 29.89" Hg
Pressure 1010 hPa
Elevation 669
METAR KHLC 242353Z AUTO 15010G21KT 10SM CLR 29/18 A2989 RMK AO2 SLP100 T02940183 10317 20289 56013
Observed Flight Rules
May-24 @ 23:53 UTC
(an hour ago)
VFR
Wind Visibility
150° at 10 knots
 Gusting to 21 knots
10 miles
Clouds
  • Clear skies
Temperature Dewpoint
29°C / 84°F 18°C / 64°F
Humidity Altimeter Pressure
51% 29.89" Hg 1010 hPa